Погода Масальскоена 2 недели

Тверская область, Россия

23 мая-05 июня
  • 23мая
    Сегодня
    +9°
    +24°
    Ясно и безоблачно
    ВремяПогодаТемператураВлажностьДавлениеВетер, м/сВероятность осадков
    00:00Ясно и безоблачно+12°C59 %751 мм1.4 м/с2 %
    03:00Ясно и безоблачно+10°C66 %752 мм1.5 м/с2 %
    06:00Ясно и безоблачно+10°C64 %753 мм1.6 м/с2 %
    09:00Ясно и безоблачно+17°C53 %754 мм2.6 м/с2 %
    12:00Ясно и безоблачно+21°C37 %754 мм3.5 м/с2 %
    15:00Ясно и безоблачно+23°C35 %754 мм2.8 м/с2 %
    18:00Ясно и безоблачно+23°C38 %754 мм2.9 м/с2 %
    21:00Ясно и безоблачно+18°C52 %754 мм1.8 м/с2 %
  • 24мая
    Пятница
    +7°
    +23°
    Ясно и безоблачно
    ВремяПогодаТемператураВлажностьДавлениеВетер, м/сВероятность осадков
    00:00Ясно и безоблачно+12°C58 %755 мм1.1 м/с2 %
    03:00Ясно и безоблачно+10°C69 %756 мм1.3 м/с2 %
    06:00Ясно и безоблачно+10°C72 %757 мм1.4 м/с2 %
    09:00Ясно и безоблачно+16°C49 %758 мм2.7 м/с2 %
    12:00Ясно и безоблачно+20°C36 %757 мм3.7 м/с2 %
    15:00Ясно и безоблачно+22°C30 %757 мм3.0 м/с2 %
    18:00Ясно и безоблачно+22°C33 %756 мм2.8 м/с2 %
    21:00Ясно и безоблачно+17°C54 %755 мм1.4 м/с2 %
  • 25мая
    Суббота
    +9°
    +24°
    Ясно и безоблачно
    ВремяПогодаТемператураВлажностьДавлениеВетер, м/сВероятность осадков
    00:00Ясно и безоблачно+11°C57 %755 мм0.9 м/с2 %
    03:00Ясно и безоблачно+8°C66 %755 мм1.4 м/с2 %
    06:00Ясно и безоблачно+9°C73 %755 мм1.1 м/с2 %
    09:00Ясно и безоблачно+17°C58 %755 мм1.8 м/с2 %
    12:00Ясно и безоблачно+22°C45 %755 мм2.6 м/с2 %
    15:00Ясно и безоблачно+24°C39 %754 мм2.2 м/с2 %
    18:00Ясно и безоблачно+24°C40 %752 мм2.0 м/с4 %
    21:00Ясно и безоблачно+18°C66 %752 мм0.9 м/с2 %
  • 26мая
    Воскресенье
    +12°
    +27°
    Небольшая облачность
    ВремяПогодаТемператураВлажностьДавлениеВетер, м/сВероятность осадков
    00:00Ясно и безоблачно+13°C77 %752 мм0.3 м/с2 %
    03:00Ясно и безоблачно+10°C82 %751 мм1.0 м/с2 %
    06:00Ясно и безоблачно+11°C83 %751 мм0.7 м/с3 %
    09:00Ясно и безоблачно+19°C62 %752 мм0.7 м/с2 %
    12:00Ясно и безоблачно+24°C40 %752 мм1.1 м/с17 %
    15:00Небольшая облачность+27°C37 %752 мм0.6 м/с29 %
    18:00Небольшая облачность+26°C38 %751 мм1.3 м/с43 %
    21:00Практически безоблачно+20°C65 %752 мм0.9 м/с20 %
  • 27мая
    Понедельник
    +12°
    +27°
    Практически безоблачно
    ВремяПогодаТемператураВлажностьДавлениеВетер, м/сВероятность осадков
    00:00Небольшая облачность+16°C82 %752 мм0.6 м/с2 %
    03:00Практически безоблачно+13°C92 %753 мм0.6 м/с2 %
    06:00Ясно и безоблачно+13°C94 %753 мм0.3 м/с2 %
    09:00Ясно и безоблачно+20°C75 %754 мм0.9 м/с3 %
    12:00Практически безоблачно+24°C56 %754 мм1.0 м/с23 %
    15:00Практически безоблачно+26°C52 %753 мм1.0 м/с32 %
    18:00Небольшая облачность и лёгкий дождик+22°C65 %753 мм0.9 м/с30 %
    21:00Ясно и безоблачно+20°C77 %752 мм0.3 м/с4 %
Мы используем cookies
Соглашаюсь